sensor_id;sensor_type;location;lat;lon;timestamp;temperature;humidity
35129;DHT22;21301;43.626;10.580;2023-02-28T00:00:45;6.90;99.90
35129;DHT22;21301;43.626;10.580;2023-02-28T00:03:11;6.90;99.90
35129;DHT22;21301;43.626;10.580;2023-02-28T00:05:37;6.80;99.90
35129;DHT22;21301;43.626;10.580;2023-02-28T00:08:03;6.80;99.90
35129;DHT22;21301;43.626;10.580;2023-02-28T00:10:30;6.80;99.90
35129;DHT22;21301;43.626;10.580;2023-02-28T00:13:01;6.80;99.90
35129;DHT22;21301;43.626;10.580;2023-02-28T00:15:27;6.80;99.90
35129;DHT22;21301;43.626;10.580;2023-02-28T00:17:53;6.70;99.90
35129;DHT22;21301;43.626;10.580;2023-02-28T00:20:19;6.80;99.90
35129;DHT22;21301;43.626;10.580;2023-02-28T00:22:48;6.70;99.90
35129;DHT22;21301;43.626;10.580;2023-02-28T00:25:16;6.70;99.90
35129;DHT22;21301;43.626;10.580;2023-02-28T00:27:42;6.70;99.90
35129;DHT22;21301;43.626;10.580;2023-02-28T00:30:12;6.60;99.90
35129;DHT22;21301;43.626;10.580;2023-02-28T00:32:38;6.60;99.90
35129;DHT22;21301;43.626;10.580;2023-02-28T00:35:04;6.60;99.90
35129;DHT22;21301;43.626;10.580;2023-02-28T00:37:31;6.50;99.90
35129;DHT22;21301;43.626;10.580;2023-02-28T00:39:57;6.50;99.90
35129;DHT22;21301;43.626;10.580;2023-02-28T00:42:23;6.50;99.90
35129;DHT22;21301;43.626;10.580;2023-02-28T00:44:49;6.50;99.90
35129;DHT22;21301;43.626;10.580;2023-02-28T00:47:15;6.50;99.90
35129;DHT22;21301;43.626;10.580;2023-02-28T00:49:42;6.50;99.90
35129;DHT22;21301;43.626;10.580;2023-02-28T00:52:09;6.50;99.90
35129;DHT22;21301;43.626;10.580;2023-02-28T00:54:35;6.50;99.90
35129;DHT22;21301;43.626;10.580;2023-02-28T00:57:01;6.50;99.90
35129;DHT22;21301;43.626;10.580;2023-02-28T00:59:27;6.60;99.90
35129;DHT22;21301;43.626;10.580;2023-02-28T01:01:53;6.50;99.90
35129;DHT22;21301;43.626;10.580;2023-02-28T01:04:18;6.60;99.90
35129;DHT22;21301;43.626;10.580;2023-02-28T01:06:44;6.60;99.90
35129;DHT22;21301;43.626;10.580;2023-02-28T01:09:11;6.60;99.90
35129;DHT22;21301;43.626;10.580;2023-02-28T01:11:37;6.60;99.90
35129;DHT22;21301;43.626;10.580;2023-02-28T01:14:03;6.60;99.90
35129;DHT22;21301;43.626;10.580;2023-02-28T01:16:30;6.60;99.90
35129;DHT22;21301;43.626;10.580;2023-02-28T01:18:55;6.60;99.90
35129;DHT22;21301;43.626;10.580;2023-02-28T01:21:22;6.60;99.90
35129;DHT22;21301;43.626;10.580;2023-02-28T01:23:48;6.70;99.90
35129;DHT22;21301;43.626;10.580;2023-02-28T01:26:17;6.70;99.90
35129;DHT22;21301;43.626;10.580;2023-02-28T01:28:43;6.70;99.90
35129;DHT22;21301;43.626;10.580;2023-02-28T01:31:10;6.70;99.90
35129;DHT22;21301;43.626;10.580;2023-02-28T01:33:38;6.70;99.90
35129;DHT22;21301;43.626;10.580;2023-02-28T01:36:07;6.70;99.90
35129;DHT22;21301;43.626;10.580;2023-02-28T01:38:35;6.70;99.90
35129;DHT22;21301;43.626;10.580;2023-02-28T01:41:01;6.70;99.90
35129;DHT22;21301;43.626;10.580;2023-02-28T01:43:29;6.70;99.90
35129;DHT22;21301;43.626;10.580;2023-02-28T01:45:56;6.70;99.90
35129;DHT22;21301;43.626;10.580;2023-02-28T01:48:32;6.70;99.90
35129;DHT22;21301;43.626;10.580;2023-02-28T01:51:11;6.70;99.90
35129;DHT22;21301;43.626;10.580;2023-02-28T01:53:47;6.70;99.90
35129;DHT22;21301;43.626;10.580;2023-02-28T01:56:20;6.70;99.90
35129;DHT22;21301;43.626;10.580;2023-02-28T01:58:50;6.70;99.90
35129;DHT22;21301;43.626;10.580;2023-02-28T02:01:17;6.70;99.90
35129;DHT22;21301;43.626;10.580;2023-02-28T02:03:58;6.80;99.90
35129;DHT22;21301;43.626;10.580;2023-02-28T02:06:29;6.80;99.90
35129;DHT22;21301;43.626;10.580;2023-02-28T02:08:56;6.80;99.90
35129;DHT22;21301;43.626;10.580;2023-02-28T02:11:24;6.80;99.90
35129;DHT22;21301;43.626;10.580;2023-02-28T02:36:44;6.80;99.90
35129;DHT22;21301;43.626;10.580;2023-02-28T02:39:40;6.80;99.90
35129;DHT22;21301;43.626;10.580;2023-02-28T02:42:16;6.80;99.90
35129;DHT22;21301;43.626;10.580;2023-02-28T02:44:50;6.80;99.90
35129;DHT22;21301;43.626;10.580;2023-02-28T02:47:21;6.80;99.90
35129;DHT22;21301;43.626;10.580;2023-02-28T02:50:02;6.80;99.90
35129;DHT22;21301;43.626;10.580;2023-02-28T02:52:40;6.80;99.90
35129;DHT22;21301;43.626;10.580;2023-02-28T02:55:09;6.80;99.90
35129;DHT22;21301;43.626;10.580;2023-02-28T02:58:03;6.80;99.90
35129;DHT22;21301;43.626;10.580;2023-02-28T03:00:34;6.80;99.90
35129;DHT22;21301;43.626;10.580;2023-02-28T03:03:02;6.80;99.90
35129;DHT22;21301;43.626;10.580;2023-02-28T03:05:34;6.80;99.90
35129;DHT22;21301;43.626;10.580;2023-02-28T03:08:03;6.80;99.90
35129;DHT22;21301;43.626;10.580;2023-02-28T03:10:42;6.80;99.90
35129;DHT22;21301;43.626;10.580;2023-02-28T03:13:17;6.80;99.90
35129;DHT22;21301;43.626;10.580;2023-02-28T03:21:26;6.80;99.90
35129;DHT22;21301;43.626;10.580;2023-02-28T03:24:10;6.80;99.90
35129;DHT22;21301;43.626;10.580;2023-02-28T03:26:44;6.80;99.90
35129;DHT22;21301;43.626;10.580;2023-02-28T03:29:15;6.80;99.90
35129;DHT22;21301;43.626;10.580;2023-02-28T03:31:49;6.80;99.90
35129;DHT22;21301;43.626;10.580;2023-02-28T03:34:34;6.80;99.90
35129;DHT22;21301;43.626;10.580;2023-02-28T03:37:07;6.80;99.90
35129;DHT22;21301;43.626;10.580;2023-02-28T03:39:42;6.80;99.90
35129;DHT22;21301;43.626;10.580;2023-02-28T03:42:13;6.70;99.90
35129;DHT22;21301;43.626;10.580;2023-02-28T03:44:43;6.70;99.90
35129;DHT22;21301;43.626;10.580;2023-02-28T03:47:31;6.70;99.90
35129;DHT22;21301;43.626;10.580;2023-02-28T03:50:03;6.70;99.90
35129;DHT22;21301;43.626;10.580;2023-02-28T03:52:34;6.70;99.90
35129;DHT22;21301;43.626;10.580;2023-02-28T03:55:06;6.80;99.90
35129;DHT22;21301;43.626;10.580;2023-02-28T04:00:20;6.80;99.90
35129;DHT22;21301;43.626;10.580;2023-02-28T04:02:46;6.80;99.90
35129;DHT22;21301;43.626;10.580;2023-02-28T04:05:19;6.80;99.90
35129;DHT22;21301;43.626;10.580;2023-02-28T04:07:46;6.80;99.90
35129;DHT22;21301;43.626;10.580;2023-02-28T04:10:12;6.80;99.90
35129;DHT22;21301;43.626;10.580;2023-02-28T04:12:38;6.80;99.90
35129;DHT22;21301;43.626;10.580;2023-02-28T04:15:04;6.80;99.90
35129;DHT22;21301;43.626;10.580;2023-02-28T04:17:30;6.80;99.90
35129;DHT22;21301;43.626;10.580;2023-02-28T04:19:56;6.80;99.90
35129;DHT22;21301;43.626;10.580;2023-02-28T04:22:23;6.80;99.90
35129;DHT22;21301;43.626;10.580;2023-02-28T04:24:51;6.70;99.90
35129;DHT22;21301;43.626;10.580;2023-02-28T04:27:20;6.80;99.90
35129;DHT22;21301;43.626;10.580;2023-02-28T04:29:46;6.80;99.90
35129;DHT22;21301;43.626;10.580;2023-02-28T04:32:12;6.80;99.90
35129;DHT22;21301;43.626;10.580;2023-02-28T04:34:38;6.80;99.90
35129;DHT22;21301;43.626;10.580;2023-02-28T04:37:04;6.90;99.90
35129;DHT22;21301;43.626;10.580;2023-02-28T04:39:30;6.90;99.90
35129;DHT22;21301;43.626;10.580;2023-02-28T04:41:56;6.90;99.90
35129;DHT22;21301;43.626;10.580;2023-02-28T04:44:22;6.90;99.90
35129;DHT22;21301;43.626;10.580;2023-02-28T04:46:48;6.80;99.90
35129;DHT22;21301;43.626;10.580;2023-02-28T04:49:15;6.80;99.90
35129;DHT22;21301;43.626;10.580;2023-02-28T04:51:41;6.90;99.90
35129;DHT22;21301;43.626;10.580;2023-02-28T04:54:08;6.80;99.90
35129;DHT22;21301;43.626;10.580;2023-02-28T04:56:34;6.80;99.90
35129;DHT22;21301;43.626;10.580;2023-02-28T04:58:59;6.80;99.90
35129;DHT22;21301;43.626;10.580;2023-02-28T05:01:28;6.80;99.90
35129;DHT22;21301;43.626;10.580;2023-02-28T05:03:57;6.80;99.90
35129;DHT22;21301;43.626;10.580;2023-02-28T05:06:25;6.80;99.90
35129;DHT22;21301;43.626;10.580;2023-02-28T05:08:52;6.80;99.90
35129;DHT22;21301;43.626;10.580;2023-02-28T05:11:25;6.80;99.90
35129;DHT22;21301;43.626;10.580;2023-02-28T05:13:52;6.80;99.90
35129;DHT22;21301;43.626;10.580;2023-02-28T05:16:18;6.80;99.90
35129;DHT22;21301;43.626;10.580;2023-02-28T05:18:45;6.80;99.90
35129;DHT22;21301;43.626;10.580;2023-02-28T05:23:58;6.80;99.90
35129;DHT22;21301;43.626;10.580;2023-02-28T05:26:25;6.80;99.90
35129;DHT22;21301;43.626;10.580;2023-02-28T05:28:50;6.80;99.90
35129;DHT22;21301;43.626;10.580;2023-02-28T05:31:16;6.90;99.90
35129;DHT22;21301;43.626;10.580;2023-02-28T05:33:42;6.80;99.90
35129;DHT22;21301;43.626;10.580;2023-02-28T05:36:08;6.80;99.90
35129;DHT22;21301;43.626;10.580;2023-02-28T05:38:34;6.90;99.90
35129;DHT22;21301;43.626;10.580;2023-02-28T05:41:00;6.90;99.90
35129;DHT22;21301;43.626;10.580;2023-02-28T05:43:26;6.90;99.90
35129;DHT22;21301;43.626;10.580;2023-02-28T05:45:52;6.90;99.90
35129;DHT22;21301;43.626;10.580;2023-02-28T05:48:18;6.90;99.90
35129;DHT22;21301;43.626;10.580;2023-02-28T05:50:43;6.90;99.90
35129;DHT22;21301;43.626;10.580;2023-02-28T05:53:11;6.90;99.90
35129;DHT22;21301;43.626;10.580;2023-02-28T05:55:37;6.90;99.90
35129;DHT22;21301;43.626;10.580;2023-02-28T05:58:03;6.90;99.90
35129;DHT22;21301;43.626;10.580;2023-02-28T06:00:29;6.90;99.90
35129;DHT22;21301;43.626;10.580;2023-02-28T06:02:55;6.90;99.90
35129;DHT22;21301;43.626;10.580;2023-02-28T06:05:23;6.90;99.90
35129;DHT22;21301;43.626;10.580;2023-02-28T06:07:49;6.90;99.90
35129;DHT22;21301;43.626;10.580;2023-02-28T06:10:15;6.90;99.90
35129;DHT22;21301;43.626;10.580;2023-02-28T06:12:41;6.90;99.90
35129;DHT22;21301;43.626;10.580;2023-02-28T06:15:14;6.90;99.90
35129;DHT22;21301;43.626;10.580;2023-02-28T06:17:41;6.90;99.90
35129;DHT22;21301;43.626;10.580;2023-02-28T06:20:08;6.90;99.90
35129;DHT22;21301;43.626;10.580;2023-02-28T06:22:36;6.90;99.90
35129;DHT22;21301;43.626;10.580;2023-02-28T06:25:03;6.90;99.90
35129;DHT22;21301;43.626;10.580;2023-02-28T06:27:31;6.90;99.90
35129;DHT22;21301;43.626;10.580;2023-02-28T06:29:57;7.00;99.90
35129;DHT22;21301;43.626;10.580;2023-02-28T06:32:23;7.10;99.90
35129;DHT22;21301;43.626;10.580;2023-02-28T06:34:48;7.10;99.90
35129;DHT22;21301;43.626;10.580;2023-02-28T06:37:16;7.20;99.90
35129;DHT22;21301;43.626;10.580;2023-02-28T06:39:42;7.20;99.90
35129;DHT22;21301;43.626;10.580;2023-02-28T06:42:08;7.20;99.90
35129;DHT22;21301;43.626;10.580;2023-02-28T06:44:33;7.20;99.90
35129;DHT22;21301;43.626;10.580;2023-02-28T06:47:04;7.20;99.90
35129;DHT22;21301;43.626;10.580;2023-02-28T06:49:32;7.20;99.90
35129;DHT22;21301;43.626;10.580;2023-02-28T06:51:58;7.30;99.90
35129;DHT22;21301;43.626;10.580;2023-02-28T06:54:24;7.40;99.90
35129;DHT22;21301;43.626;10.580;2023-02-28T06:56:49;7.50;99.90
35129;DHT22;21301;43.626;10.580;2023-02-28T06:59:16;8.10;99.90
35129;DHT22;21301;43.626;10.580;2023-02-28T07:01:42;8.00;99.90
35129;DHT22;21301;43.626;10.580;2023-02-28T07:04:08;7.90;99.90
35129;DHT22;21301;43.626;10.580;2023-02-28T07:06:34;7.90;99.90
35129;DHT22;21301;43.626;10.580;2023-02-28T07:09:00;7.90;99.90
35129;DHT22;21301;43.626;10.580;2023-02-28T07:11:27;7.80;99.90
35129;DHT22;21301;43.626;10.580;2023-02-28T07:13:54;7.80;99.90
35129;DHT22;21301;43.626;10.580;2023-02-28T07:16:21;7.80;99.90
35129;DHT22;21301;43.626;10.580;2023-02-28T07:18:47;7.80;99.90
35129;DHT22;21301;43.626;10.580;2023-02-28T07:21:16;7.80;99.90
35129;DHT22;21301;43.626;10.580;2023-02-28T07:23:42;7.80;99.90
35129;DHT22;21301;43.626;10.580;2023-02-28T07:26:12;7.80;99.90
35129;DHT22;21301;43.626;10.580;2023-02-28T07:28:41;7.90;99.90
35129;DHT22;21301;43.626;10.580;2023-02-28T07:31:11;7.90;99.90
35129;DHT22;21301;43.626;10.580;2023-02-28T07:33:38;8.00;99.90
35129;DHT22;21301;43.626;10.580;2023-02-28T07:36:08;8.10;99.90
35129;DHT22;21301;43.626;10.580;2023-02-28T07:38:37;8.30;99.90
35129;DHT22;21301;43.626;10.580;2023-02-28T07:41:03;8.40;99.90
35129;DHT22;21301;43.626;10.580;2023-02-28T07:43:30;9.00;99.90
35129;DHT22;21301;43.626;10.580;2023-02-28T07:46:05;9.60;99.90
35129;DHT22;21301;43.626;10.580;2023-02-28T07:48:32;9.90;99.90
35129;DHT22;21301;43.626;10.580;2023-02-28T07:50:58;9.60;99.90
35129;DHT22;21301;43.626;10.580;2023-02-28T07:53:25;9.50;99.90
35129;DHT22;21301;43.626;10.580;2023-02-28T07:55:55;9.40;99.90
35129;DHT22;21301;43.626;10.580;2023-02-28T07:58:20;9.30;99.90
35129;DHT22;21301;43.626;10.580;2023-02-28T08:00:46;9.20;99.90
35129;DHT22;21301;43.626;10.580;2023-02-28T08:03:12;9.20;99.90
35129;DHT22;21301;43.626;10.580;2023-02-28T08:05:42;9.20;99.90
35129;DHT22;21301;43.626;10.580;2023-02-28T08:08:08;9.20;99.90
35129;DHT22;21301;43.626;10.580;2023-02-28T08:10:34;9.30;99.90
35129;DHT22;21301;43.626;10.580;2023-02-28T08:13:00;9.40;99.90
35129;DHT22;21301;43.626;10.580;2023-02-28T08:15:26;9.40;99.90
35129;DHT22;21301;43.626;10.580;2023-02-28T08:17:52;9.30;99.90
35129;DHT22;21301;43.626;10.580;2023-02-28T08:20:18;9.20;99.90
35129;DHT22;21301;43.626;10.580;2023-02-28T08:22:44;9.20;99.90
35129;DHT22;21301;43.626;10.580;2023-02-28T08:25:10;9.30;99.90
35129;DHT22;21301;43.626;10.580;2023-02-28T08:27:36;9.40;99.90
35129;DHT22;21301;43.626;10.580;2023-02-28T08:30:03;9.50;99.90
35129;DHT22;21301;43.626;10.580;2023-02-28T08:32:29;9.50;99.90
35129;DHT22;21301;43.626;10.580;2023-02-28T08:34:54;9.50;99.90
35129;DHT22;21301;43.626;10.580;2023-02-28T08:37:20;9.70;99.90
35129;DHT22;21301;43.626;10.580;2023-02-28T08:39:46;9.80;99.90
35129;DHT22;21301;43.626;10.580;2023-02-28T08:42:12;9.90;99.90
35129;DHT22;21301;43.626;10.580;2023-02-28T08:44:38;10.10;99.90
35129;DHT22;21301;43.626;10.580;2023-02-28T08:47:04;10.20;99.90
35129;DHT22;21301;43.626;10.580;2023-02-28T08:49:29;9.90;99.90
35129;DHT22;21301;43.626;10.580;2023-02-28T08:51:55;9.70;99.90
35129;DHT22;21301;43.626;10.580;2023-02-28T08:54:23;9.70;99.90
35129;DHT22;21301;43.626;10.580;2023-02-28T08:56:49;9.70;99.90
35129;DHT22;21301;43.626;10.580;2023-02-28T08:59:15;9.70;99.90
35129;DHT22;21301;43.626;10.580;2023-02-28T09:01:41;9.60;99.90
35129;DHT22;21301;43.626;10.580;2023-02-28T09:04:09;9.70;99.90
35129;DHT22;21301;43.626;10.580;2023-02-28T09:06:36;9.70;99.90
35129;DHT22;21301;43.626;10.580;2023-02-28T09:09:03;9.80;99.90
35129;DHT22;21301;43.626;10.580;2023-02-28T09:11:31;9.90;99.90
35129;DHT22;21301;43.626;10.580;2023-02-28T09:13:58;10.00;99.90
35129;DHT22;21301;43.626;10.580;2023-02-28T09:16:26;10.00;99.90
35129;DHT22;21301;43.626;10.580;2023-02-28T09:18:52;10.10;99.90
35129;DHT22;21301;43.626;10.580;2023-02-28T09:21:18;10.10;99.90
35129;DHT22;21301;43.626;10.580;2023-02-28T09:23:46;10.20;99.90
35129;DHT22;21301;43.626;10.580;2023-02-28T09:26:17;10.60;99.90
35129;DHT22;21301;43.626;10.580;2023-02-28T09:28:43;10.60;99.90
35129;DHT22;21301;43.626;10.580;2023-02-28T09:31:21;10.50;99.90
35129;DHT22;21301;43.626;10.580;2023-02-28T09:33:48;10.40;99.90
35129;DHT22;21301;43.626;10.580;2023-02-28T09:36:14;10.40;99.90
35129;DHT22;21301;43.626;10.580;2023-02-28T09:38:40;10.30;99.90
35129;DHT22;21301;43.626;10.580;2023-02-28T09:41:19;10.40;99.90
35129;DHT22;21301;43.626;10.580;2023-02-28T09:43:57;10.50;99.90
35129;DHT22;21301;43.626;10.580;2023-02-28T09:46:35;10.40;99.90
35129;DHT22;21301;43.626;10.580;2023-02-28T09:49:08;10.30;99.90
35129;DHT22;21301;43.626;10.580;2023-02-28T09:52:01;10.30;99.90
35129;DHT22;21301;43.626;10.580;2023-02-28T09:54:32;10.30;99.90
35129;DHT22;21301;43.626;10.580;2023-02-28T09:57:14;10.30;99.90
35129;DHT22;21301;43.626;10.580;2023-02-28T10:05:27;10.60;99.90
35129;DHT22;21301;43.626;10.580;2023-02-28T10:10:53;10.80;99.90
35129;DHT22;21301;43.626;10.580;2023-02-28T10:13:25;10.80;99.90
35129;DHT22;21301;43.626;10.580;2023-02-28T10:16:16;10.60;99.90
35129;DHT22;21301;43.626;10.580;2023-02-28T10:18:51;10.60;99.90
35129;DHT22;21301;43.626;10.580;2023-02-28T10:21:28;10.60;99.90
35129;DHT22;21301;43.626;10.580;2023-02-28T10:24:03;10.90;99.90
35129;DHT22;21301;43.626;10.580;2023-02-28T10:26:31;11.10;99.90
35129;DHT22;21301;43.626;10.580;2023-02-28T10:28:57;11.00;99.90
35129;DHT22;21301;43.626;10.580;2023-02-28T10:31:26;11.30;99.90
35129;DHT22;21301;43.626;10.580;2023-02-28T10:33:52;11.50;99.90
35129;DHT22;21301;43.626;10.580;2023-02-28T10:36:23;11.80;99.90
35129;DHT22;21301;43.626;10.580;2023-02-28T10:38:49;11.80;99.90
35129;DHT22;21301;43.626;10.580;2023-02-28T10:41:31;12.30;99.90
35129;DHT22;21301;43.626;10.580;2023-02-28T10:44:21;12.10;99.90
35129;DHT22;21301;43.626;10.580;2023-02-28T10:46:49;12.20;99.90
35129;DHT22;21301;43.626;10.580;2023-02-28T10:49:20;11.90;99.90
35129;DHT22;21301;43.626;10.580;2023-02-28T10:51:47;11.40;99.90
35129;DHT22;21301;43.626;10.580;2023-02-28T10:54:37;11.40;99.90
35129;DHT22;21301;43.626;10.580;2023-02-28T10:59:44;11.10;99.90
35129;DHT22;21301;43.626;10.580;2023-02-28T11:02:35;11.20;99.90
35129;DHT22;21301;43.626;10.580;2023-02-28T11:05:26;11.70;99.90
35129;DHT22;21301;43.626;10.580;2023-02-28T11:07:54;11.90;99.90
35129;DHT22;21301;43.626;10.580;2023-02-28T11:10:22;11.80;99.90
35129;DHT22;21301;43.626;10.580;2023-02-28T11:12:49;12.10;99.90
35129;DHT22;21301;43.626;10.580;2023-02-28T11:15:24;12.00;99.90
35129;DHT22;21301;43.626;10.580;2023-02-28T11:18:00;11.80;99.90
35129;DHT22;21301;43.626;10.580;2023-02-28T11:20:32;12.10;99.90
35129;DHT22;21301;43.626;10.580;2023-02-28T11:23:00;12.00;99.40
35129;DHT22;21301;43.626;10.580;2023-02-28T11:25:31;12.10;99.40
35129;DHT22;21301;43.626;10.580;2023-02-28T11:28:00;12.20;99.60
35129;DHT22;21301;43.626;10.580;2023-02-28T11:30:38;12.30;99.50
35129;DHT22;21301;43.626;10.580;2023-02-28T11:33:24;12.20;99.30
35129;DHT22;21301;43.626;10.580;2023-02-28T11:35:52;11.90;99.50
35129;DHT22;21301;43.626;10.580;2023-02-28T11:38:19;12.00;99.90
35129;DHT22;21301;43.626;10.580;2023-02-28T11:43:23;11.90;99.90
35129;DHT22;21301;43.626;10.580;2023-02-28T11:51:34;12.10;99.70
35129;DHT22;21301;43.626;10.580;2023-02-28T11:56:37;12.20;99.60
35129;DHT22;21301;43.626;10.580;2023-02-28T12:02:01;12.20;99.90
35129;DHT22;21301;43.626;10.580;2023-02-28T12:07:24;12.50;99.90
35129;DHT22;21301;43.626;10.580;2023-02-28T12:21:21;11.60;99.90
35129;DHT22;21301;43.626;10.580;2023-02-28T12:26:42;11.50;99.90
35129;DHT22;21301;43.626;10.580;2023-02-28T12:31:55;11.90;99.40
35129;DHT22;21301;43.626;10.580;2023-02-28T12:34:37;12.10;99.50
35129;DHT22;21301;43.626;10.580;2023-02-28T12:37:25;12.10;99.20
35129;DHT22;21301;43.626;10.580;2023-02-28T12:40:00;12.30;99.40
35129;DHT22;21301;43.626;10.580;2023-02-28T12:42:34;12.20;99.30
35129;DHT22;21301;43.626;10.580;2023-02-28T12:45:07;12.30;99.40
35129;DHT22;21301;43.626;10.580;2023-02-28T12:47:36;12.50;99.40
35129;DHT22;21301;43.626;10.580;2023-02-28T12:50:09;12.10;99.10
35129;DHT22;21301;43.626;10.580;2023-02-28T13:00:38;11.40;99.90
35129;DHT22;21301;43.626;10.580;2023-02-28T13:09:16;11.60;99.80
35129;DHT22;21301;43.626;10.580;2023-02-28T13:11:45;11.50;99.40
35129;DHT22;21301;43.626;10.580;2023-02-28T13:14:30;11.60;99.80
35129;DHT22;21301;43.626;10.580;2023-02-28T13:19:39;11.20;99.80
35129;DHT22;21301;43.626;10.580;2023-02-28T13:28:12;11.20;99.90
35129;DHT22;21301;43.626;10.580;2023-02-28T13:33:27;10.80;99.90
35129;DHT22;21301;43.626;10.580;2023-02-28T13:38:59;11.10;99.90
35129;DHT22;21301;43.626;10.580;2023-02-28T13:44:10;11.00;99.90
35129;DHT22;21301;43.626;10.580;2023-02-28T14:05:39;11.20;99.90
35129;DHT22;21301;43.626;10.580;2023-02-28T14:08:16;11.00;99.90
35129;DHT22;21301;43.626;10.580;2023-02-28T14:11:02;10.70;99.90
35129;DHT22;21301;43.626;10.580;2023-02-28T14:13:46;10.80;99.90
35129;DHT22;21301;43.626;10.580;2023-02-28T14:16:19;10.90;99.90
35129;DHT22;21301;43.626;10.580;2023-02-28T14:19:00;10.90;99.90
35129;DHT22;21301;43.626;10.580;2023-02-28T14:32:30;10.20;99.90
35129;DHT22;21301;43.626;10.580;2023-02-28T14:35:29;10.20;99.90
35129;DHT22;21301;43.626;10.580;2023-02-28T14:38:05;10.30;99.90
35129;DHT22;21301;43.626;10.580;2023-02-28T14:40:34;10.30;99.90
35129;DHT22;21301;43.626;10.580;2023-02-28T14:43:03;10.30;99.90
35129;DHT22;21301;43.626;10.580;2023-02-28T14:45:34;10.20;99.90
35129;DHT22;21301;43.626;10.580;2023-02-28T14:48:02;10.20;99.90
35129;DHT22;21301;43.626;10.580;2023-02-28T14:50:35;10.20;99.90
35129;DHT22;21301;43.626;10.580;2023-02-28T14:53:01;10.20;99.90
35129;DHT22;21301;43.626;10.580;2023-02-28T14:55:33;10.30;99.90
35129;DHT22;21301;43.626;10.580;2023-02-28T14:58:04;10.20;99.90
35129;DHT22;21301;43.626;10.580;2023-02-28T15:00:48;10.10;99.90
35129;DHT22;21301;43.626;10.580;2023-02-28T15:03:38;10.10;99.90
35129;DHT22;21301;43.626;10.580;2023-02-28T15:06:13;10.10;99.90
35129;DHT22;21301;43.626;10.580;2023-02-28T15:08:39;10.00;99.90
35129;DHT22;21301;43.626;10.580;2023-02-28T15:11:12;10.10;99.90
35129;DHT22;21301;43.626;10.580;2023-02-28T15:13:50;10.10;99.90
35129;DHT22;21301;43.626;10.580;2023-02-28T15:16:33;10.00;99.90
35129;DHT22;21301;43.626;10.580;2023-02-28T15:19:14;10.00;99.90
35129;DHT22;21301;43.626;10.580;2023-02-28T15:21:46;9.90;99.90
35129;DHT22;21301;43.626;10.580;2023-02-28T15:26:58;9.80;99.90
35129;DHT22;21301;43.626;10.580;2023-02-28T15:29:26;9.80;99.90
35129;DHT22;21301;43.626;10.580;2023-02-28T15:32:00;9.80;99.90
35129;DHT22;21301;43.626;10.580;2023-02-28T15:37:01;9.70;99.90
35129;DHT22;21301;43.626;10.580;2023-02-28T15:39:28;9.70;99.90
35129;DHT22;21301;43.626;10.580;2023-02-28T15:42:11;9.60;99.90
35129;DHT22;21301;43.626;10.580;2023-02-28T15:44:38;9.60;99.90
35129;DHT22;21301;43.626;10.580;2023-02-28T15:47:11;9.60;99.90
35129;DHT22;21301;43.626;10.580;2023-02-28T15:49:45;9.50;99.90
35129;DHT22;21301;43.626;10.580;2023-02-28T15:52:16;9.50;99.90
35129;DHT22;21301;43.626;10.580;2023-02-28T15:54:43;9.50;99.90
35129;DHT22;21301;43.626;10.580;2023-02-28T15:57:48;9.40;99.90
35129;DHT22;21301;43.626;10.580;2023-02-28T16:00:11;9.40;99.90
35129;DHT22;21301;43.626;10.580;2023-02-28T16:02:38;9.30;99.90
35129;DHT22;21301;43.626;10.580;2023-02-28T16:07:38;9.20;99.90
35129;DHT22;21301;43.626;10.580;2023-02-28T16:10:05;9.10;99.90
35129;DHT22;21301;43.626;10.580;2023-02-28T16:12:34;9.10;99.90
35129;DHT22;21301;43.626;10.580;2023-02-28T16:15:06;9.10;99.90
35129;DHT22;21301;43.626;10.580;2023-02-28T16:17:35;9.10;99.90
35129;DHT22;21301;43.626;10.580;2023-02-28T16:20:39;9.10;99.90
35129;DHT22;21301;43.626;10.580;2023-02-28T16:22:58;9.00;99.90
35129;DHT22;21301;43.626;10.580;2023-02-28T16:25:39;9.00;99.90
35129;DHT22;21301;43.626;10.580;2023-02-28T16:28:19;8.90;99.90
35129;DHT22;21301;43.626;10.580;2023-02-28T16:30:46;8.80;99.90
35129;DHT22;21301;43.626;10.580;2023-02-28T16:33:12;8.80;99.90
35129;DHT22;21301;43.626;10.580;2023-02-28T16:35:38;8.80;99.90
35129;DHT22;21301;43.626;10.580;2023-02-28T16:38:03;8.80;99.90
35129;DHT22;21301;43.626;10.580;2023-02-28T16:40:33;8.80;99.90
35129;DHT22;21301;43.626;10.580;2023-02-28T16:43:00;8.70;99.90
35129;DHT22;21301;43.626;10.580;2023-02-28T16:45:29;8.70;99.90
35129;DHT22;21301;43.626;10.580;2023-02-28T16:47:56;8.60;99.90
35129;DHT22;21301;43.626;10.580;2023-02-28T16:50:27;8.60;99.90
35129;DHT22;21301;43.626;10.580;2023-02-28T16:52:54;8.60;99.90
35129;DHT22;21301;43.626;10.580;2023-02-28T16:55:21;8.60;99.90
35129;DHT22;21301;43.626;10.580;2023-02-28T16:57:51;8.60;99.90
35129;DHT22;21301;43.626;10.580;2023-02-28T17:00:18;8.50;99.90
35129;DHT22;21301;43.626;10.580;2023-02-28T17:02:44;8.50;99.90
35129;DHT22;21301;43.626;10.580;2023-02-28T17:05:14;8.50;99.90
35129;DHT22;21301;43.626;10.580;2023-02-28T17:07:41;8.40;99.90
35129;DHT22;21301;43.626;10.580;2023-02-28T17:10:22;8.40;99.90
35129;DHT22;21301;43.626;10.580;2023-02-28T17:12:48;8.40;99.90
35129;DHT22;21301;43.626;10.580;2023-02-28T17:15:16;8.30;99.90
35129;DHT22;21301;43.626;10.580;2023-02-28T17:17:43;8.40;99.90
35129;DHT22;21301;43.626;10.580;2023-02-28T17:20:14;8.30;99.90
35129;DHT22;21301;43.626;10.580;2023-02-28T17:22:40;8.30;99.90
35129;DHT22;21301;43.626;10.580;2023-02-28T17:25:07;8.40;99.90
35129;DHT22;21301;43.626;10.580;2023-02-28T17:27:33;8.30;99.90
35129;DHT22;21301;43.626;10.580;2023-02-28T17:29:58;8.30;99.90
35129;DHT22;21301;43.626;10.580;2023-02-28T17:32:25;8.30;99.90
35129;DHT22;21301;43.626;10.580;2023-02-28T17:34:51;8.30;99.90
35129;DHT22;21301;43.626;10.580;2023-02-28T17:37:17;8.20;99.90
35129;DHT22;21301;43.626;10.580;2023-02-28T17:39:43;8.20;99.90
35129;DHT22;21301;43.626;10.580;2023-02-28T17:42:09;8.30;99.90
35129;DHT22;21301;43.626;10.580;2023-02-28T17:44:34;8.30;99.90
35129;DHT22;21301;43.626;10.580;2023-02-28T17:47:01;8.30;99.90
35129;DHT22;21301;43.626;10.580;2023-02-28T17:49:26;8.40;99.90
35129;DHT22;21301;43.626;10.580;2023-02-28T17:51:52;8.40;99.90
35129;DHT22;21301;43.626;10.580;2023-02-28T17:54:18;8.40;99.90
35129;DHT22;21301;43.626;10.580;2023-02-28T17:56:44;8.40;99.90
35129;DHT22;21301;43.626;10.580;2023-02-28T17:59:10;8.40;99.90
35129;DHT22;21301;43.626;10.580;2023-02-28T18:01:37;8.40;99.90
35129;DHT22;21301;43.626;10.580;2023-02-28T18:04:03;8.40;99.90
35129;DHT22;21301;43.626;10.580;2023-02-28T18:06:40;8.40;99.90
35129;DHT22;21301;43.626;10.580;2023-02-28T18:09:30;8.40;99.90
35129;DHT22;21301;43.626;10.580;2023-02-28T18:11:56;8.40;99.90